Terminal Aerodrome Forecast
Issued by NWS Cleveland, OH

Home | Current Version | Previous Version | Text Only | Print | Product List | Glossary Off
Versions: 1 2 3 4 5 6 7 8 9 10 11 12 13 14 15 16 17 18 19 20

796
FTUS41 KCLE 091328 AAA
TAFCAK
TAF AMD
KCAK 091328Z 0913/1012 27008KT P6SM OVC015
     FM092100 27010KT 5SM -SN OVC015
      TEMPO 0921/0924 1SM -SN BR OVC006
     FM100100 27012KT P6SM VCSH SCT008 OVC015=

USA.gov is the U.S. government's official web portal to all federal, state and local government web resources and services.